createdAt,value
2022-07-26T00:00:57.445Z,99318.16
2022-07-26T00:03:24.676Z,99323.53
2022-07-26T00:05:53.290Z,99332.81
2022-07-26T00:08:20.641Z,99343.09
2022-07-26T00:10:51.217Z,99340.44
2022-07-26T00:13:21.512Z,99343.72
2022-07-26T00:15:50.673Z,99343.31
2022-07-26T00:18:37.480Z,99343.78
2022-07-26T00:21:06.542Z,99354.84
2022-07-26T00:23:35.729Z,99361.00
2022-07-26T00:26:03.342Z,99362.00
2022-07-26T00:28:30.361Z,99347.06
2022-07-26T00:30:57.307Z,99345.59
2022-07-26T00:33:24.702Z,99345.81
2022-07-26T00:35:51.926Z,99342.16
2022-07-26T00:38:20.568Z,99347.03
2022-07-26T00:40:47.427Z,99356.88
2022-07-26T00:43:14.601Z,99354.41
2022-07-26T00:45:41.767Z,99342.13
2022-07-26T00:48:09.081Z,99343.34
2022-07-26T00:50:36.470Z,99348.44
2022-07-26T00:53:03.505Z,99348.25
2022-07-26T00:55:32.093Z,99357.69
2022-07-26T00:57:59.061Z,99360.16
2022-07-26T01:00:25.981Z,99361.38
2022-07-26T01:02:53.014Z,99365.47
2022-07-26T01:05:20.181Z,99362.19
2022-07-26T01:07:49.397Z,99360.75
2022-07-26T01:10:18.599Z,99375.53
2022-07-26T01:12:46.926Z,99377.78
2022-07-26T01:15:16.003Z,99377.16
2022-07-26T01:17:44.313Z,99380.84
2022-07-26T01:20:13.506Z,99370.91
2022-07-26T01:22:42.069Z,99365.72
2022-07-26T01:25:10.546Z,99374.75
2022-07-26T01:27:38.754Z,99374.91
2022-07-26T01:30:09.759Z,99366.34
2022-07-26T01:32:37.178Z,99374.44
2022-07-26T01:35:07.471Z,99361.00
2022-07-26T01:37:34.477Z,99354.44
2022-07-26T01:40:05.359Z,99363.38
2022-07-26T01:42:34.330Z,99378.84
2022-07-26T01:45:01.639Z,99372.19
2022-07-26T01:47:28.818Z,99373.03
2022-07-26T01:49:56.139Z,99378.16
2022-07-26T01:52:23.009Z,99380.63
2022-07-26T01:54:49.924Z,99377.63
2022-07-26T01:57:18.363Z,99375.63
2022-07-26T01:59:45.249Z,99374.13
2022-07-26T02:02:13.016Z,99380.91
2022-07-26T02:04:39.961Z,99376.00
2022-07-26T02:07:12.961Z,99376.69
2022-07-26T02:09:40.726Z,99380.13
2022-07-26T02:12:08.433Z,99381.09
2022-07-26T02:14:36.879Z,99375.53
2022-07-26T02:17:04.176Z,99367.63
2022-07-26T02:19:31.804Z,99362.25
2022-07-26T02:21:59.465Z,99374.97
2022-07-26T02:24:28.263Z,99377.34
2022-07-26T02:26:55.542Z,99366.19
2022-07-26T02:29:22.791Z,99377.34
2022-07-26T02:31:52.180Z,99383.69
2022-07-26T02:34:19.503Z,99384.28
2022-07-26T02:36:46.524Z,99380.09
2022-07-26T02:39:13.889Z,99380.34
2022-07-26T02:41:40.849Z,99383.34
2022-07-26T02:44:09.597Z,99372.84
2022-07-26T02:46:37.248Z,99379.84
2022-07-26T02:49:05.959Z,99381.97
2022-07-26T02:51:32.848Z,99374.84
2022-07-26T02:54:00.235Z,99374.94
2022-07-26T02:56:27.452Z,99374.09
2022-07-26T02:58:54.560Z,99373.94
2022-07-26T03:01:22.355Z,99361.44
2022-07-26T03:03:50.990Z,99355.84
2022-07-26T03:06:20.742Z,99367.75
2022-07-26T03:08:48.738Z,99373.75
2022-07-26T03:11:16.429Z,99377.16
2022-07-26T03:13:43.245Z,99374.75
2022-07-26T03:16:10.890Z,99372.88
2022-07-26T03:18:37.919Z,99372.13
2022-07-26T03:21:05.396Z,99372.50
2022-07-26T03:23:33.794Z,99375.03
2022-07-26T03:26:02.231Z,99375.03
2022-07-26T03:28:30.632Z,99376.59
2022-07-26T03:30:58.287Z,99372.13
2022-07-26T03:33:25.508Z,99370.53
2022-07-26T03:35:52.927Z,99377.28
2022-07-26T03:38:19.810Z,99377.22
2022-07-26T03:40:48.490Z,99384.50
2022-07-26T03:43:15.422Z,99376.22
2022-07-26T03:45:42.854Z,99385.25
2022-07-26T03:48:09.933Z,99383.41
2022-07-26T03:50:37.325Z,99387.66
2022-07-26T03:53:04.960Z,99395.22
2022-07-26T03:55:32.024Z,99395.34
2022-07-26T03:58:00.589Z,99397.50
2022-07-26T04:00:27.783Z,99387.31
2022-07-26T04:02:54.946Z,99393.69
2022-07-26T04:05:23.546Z,99389.97
2022-07-26T04:07:53.827Z,99387.25
2022-07-26T04:10:22.346Z,99391.75
2022-07-26T04:12:49.243Z,99386.56
2022-07-26T04:15:18.669Z,99399.31
2022-07-26T04:17:45.636Z,99397.34
2022-07-26T04:20:37.242Z,99397.59
2022-07-26T04:23:04.812Z,99399.03
2022-07-26T04:25:41.115Z,99395.94
2022-07-26T04:28:08.861Z,99394.16
2022-07-26T04:30:38.593Z,99400.72
2022-07-26T04:33:10.181Z,99404.00
2022-07-26T04:35:38.822Z,99396.66
2022-07-26T04:38:05.781Z,99404.91
2022-07-26T04:40:32.740Z,99403.34
2022-07-26T04:43:00.349Z,99399.13
2022-07-26T04:45:28.342Z,99409.34
2022-07-26T04:47:56.822Z,99410.53
2022-07-26T04:50:27.289Z,99412.19
2022-07-26T04:52:54.948Z,99407.06
2022-07-26T04:55:23.398Z,99420.75
2022-07-26T04:57:51.257Z,99416.25
2022-07-26T05:00:24.630Z,99415.47
2022-07-26T05:02:54.395Z,99417.28
2022-07-26T05:05:24.285Z,99420.28
2022-07-26T05:07:54.511Z,99421.91
2022-07-26T05:10:27.469Z,99429.81
2022-07-26T05:12:54.603Z,99425.72
2022-07-26T05:15:21.455Z,99434.72
2022-07-26T05:17:48.545Z,99430.63
2022-07-26T05:20:16.565Z,99429.38
2022-07-26T05:22:45.175Z,99436.09
2022-07-26T05:25:12.603Z,99433.50
2022-07-26T05:27:39.498Z,99440.59
2022-07-26T05:30:08.514Z,99442.75
2022-07-26T05:32:35.319Z,99436.44
2022-07-26T05:35:02.869Z,99442.03
2022-07-26T05:37:29.874Z,99448.22
2022-07-26T05:39:58.314Z,99448.16
2022-07-26T05:42:25.209Z,99450.34
2022-07-26T05:44:52.377Z,99452.31
2022-07-26T05:47:19.212Z,99446.16
2022-07-26T05:49:49.762Z,99448.25
2022-07-26T05:52:16.773Z,99449.00
2022-07-26T05:54:43.615Z,99456.19
2022-07-26T05:57:11.806Z,99450.16
2022-07-26T05:59:38.902Z,99450.56
2022-07-26T06:02:05.852Z,99459.03
2022-07-26T06:04:32.818Z,99455.72
2022-07-26T06:06:59.918Z,99452.19
2022-07-26T06:09:26.837Z,99457.44
2022-07-26T06:11:53.809Z,99456.59
2022-07-26T06:14:22.110Z,99463.75
2022-07-26T06:16:50.669Z,99457.00
2022-07-26T06:19:18.108Z,99469.75
2022-07-26T06:21:44.928Z,99467.25
2022-07-26T06:24:13.300Z,99467.84
2022-07-26T06:26:40.735Z,99462.47
2022-07-26T06:29:08.588Z,99461.97
2022-07-26T06:31:36.780Z,99464.91
2022-07-26T06:34:03.659Z,99461.94
2022-07-26T06:36:31.444Z,99475.25
2022-07-26T06:38:58.670Z,99467.75
2022-07-26T06:41:28.426Z,99467.09
2022-07-26T06:43:55.445Z,99471.13
2022-07-26T06:46:22.523Z,99461.53
2022-07-26T06:48:52.631Z,99469.91
2022-07-26T06:51:20.528Z,99473.19
2022-07-26T06:53:47.718Z,99469.09
2022-07-26T06:56:17.011Z,99480.47
2022-07-26T06:58:44.535Z,99479.06
2022-07-26T07:01:11.449Z,99477.22
2022-07-26T07:03:39.042Z,99476.19
2022-07-26T07:06:07.267Z,99482.63
2022-07-26T07:08:34.272Z,99468.66
2022-07-26T07:11:02.286Z,99483.53
2022-07-26T07:13:30.575Z,99477.81
2022-07-26T07:15:57.527Z,99476.50
2022-07-26T07:18:24.488Z,99477.94
2022-07-26T07:20:51.368Z,99477.69
2022-07-26T07:23:19.605Z,99473.03
2022-07-26T07:25:46.516Z,99479.97
2022-07-26T07:28:16.545Z,99475.56
2022-07-26T07:30:46.219Z,99476.19
2022-07-26T07:33:22.543Z,99471.44
2022-07-26T07:35:51.015Z,99467.47
2022-07-26T07:38:19.954Z,99480.22
2022-07-26T07:40:49.583Z,99475.13
2022-07-26T07:43:16.713Z,99476.06
2022-07-26T07:45:43.852Z,99474.78
2022-07-26T07:48:15.416Z,99473.91
2022-07-26T07:50:42.819Z,99476.19
2022-07-26T07:53:09.772Z,99477.91
2022-07-26T07:55:41.521Z,99475.09
2022-07-26T07:58:11.107Z,99475.22
2022-07-26T08:00:39.000Z,99462.63
2022-07-26T08:03:05.936Z,99465.72
2022-07-26T08:05:32.788Z,99465.06
2022-07-26T08:07:59.849Z,99461.16
2022-07-26T08:10:27.172Z,99466.56
2022-07-26T08:12:55.307Z,99466.69
2022-07-26T08:15:23.091Z,99463.78
2022-07-26T08:17:54.699Z,99461.09
2022-07-26T08:20:22.908Z,99465.72
2022-07-26T08:22:52.325Z,99472.75
2022-07-26T08:25:19.585Z,99477.72
2022-07-26T08:28:02.592Z,99474.59
2022-07-26T08:30:32.592Z,99477.38
2022-07-26T08:32:59.482Z,99470.72
2022-07-26T08:35:26.750Z,99479.47
2022-07-26T08:37:53.582Z,99482.53
2022-07-26T08:40:21.155Z,99477.84
2022-07-26T08:42:52.506Z,99479.47
2022-07-26T08:45:23.233Z,99484.38
2022-07-26T08:48:16.254Z,99483.00
2022-07-26T08:50:40.779Z,99492.91
2022-07-26T08:53:08.492Z,99489.16
2022-07-26T08:56:04.221Z,99487.41
2022-07-26T08:58:23.777Z,99482.00
2022-07-26T09:01:05.030Z,99500.22
2022-07-26T09:03:34.062Z,99498.69
2022-07-26T09:06:13.062Z,99496.34
2022-07-26T09:08:39.995Z,99501.50
2022-07-26T09:11:30.782Z,99499.16
2022-07-26T09:14:00.730Z,99508.84
2022-07-26T09:16:29.858Z,99507.22
2022-07-26T09:19:16.710Z,99505.16
2022-07-26T09:21:43.795Z,99498.56
2022-07-26T09:24:11.108Z,99503.00
2022-07-26T09:26:39.147Z,99489.81
2022-07-26T09:29:10.438Z,99504.06
2022-07-26T09:31:39.995Z,99504.97
2022-07-26T09:34:10.517Z,99505.09
2022-07-26T09:36:51.473Z,99514.69
2022-07-26T09:39:22.746Z,99508.00
2022-07-26T09:42:26.898Z,99510.16
2022-07-26T09:44:55.590Z,99513.78
2022-07-26T09:47:34.666Z,99518.50
2022-07-26T09:50:12.694Z,99504.41
2022-07-26T09:52:40.247Z,99516.75
2022-07-26T09:55:09.762Z,99515.03
2022-07-26T09:57:37.012Z,99516.66
2022-07-26T10:00:07.843Z,99515.84
2022-07-26T10:02:35.341Z,99518.28
2022-07-26T10:05:02.287Z,99522.16
2022-07-26T10:07:31.670Z,99526.16
2022-07-26T10:10:07.480Z,99519.47
2022-07-26T10:12:36.071Z,99519.28
2022-07-26T10:15:04.117Z,99522.16
2022-07-26T10:17:42.668Z,99521.91
2022-07-26T10:20:26.806Z,99525.25
2022-07-26T10:22:55.131Z,99531.59
2022-07-26T10:25:48.294Z,99527.91
2022-07-26T10:28:27.644Z,99517.72
2022-07-26T10:31:30.027Z,99520.72
2022-07-26T10:34:00.148Z,99524.19
2022-07-26T10:36:34.561Z,99515.97
2022-07-26T10:39:13.622Z,99522.66
2022-07-26T10:41:45.263Z,99516.28
2022-07-26T10:44:19.451Z,99520.28
2022-07-26T10:46:59.728Z,99518.06
2022-07-26T10:49:35.919Z,99518.41
2022-07-26T10:52:14.632Z,99520.63
2022-07-26T10:55:17.139Z,99521.59
2022-07-26T10:57:47.393Z,99524.88
2022-07-26T11:00:22.286Z,99508.28
2022-07-26T11:02:56.402Z,99526.25
2022-07-26T11:05:28.634Z,99533.41
2022-07-26T11:08:00.686Z,99525.66
2022-07-26T11:10:32.710Z,99515.09
2022-07-26T11:13:09.750Z,99525.75
2022-07-26T11:15:46.620Z,99514.72
2022-07-26T11:18:24.549Z,99514.19
2022-07-26T11:20:56.045Z,99516.06
2022-07-26T11:23:33.702Z,99522.09
2022-07-26T11:26:15.816Z,99522.06
2022-07-26T11:28:57.149Z,99514.72
2022-07-26T11:31:55.386Z,99507.38
2022-07-26T11:34:24.672Z,99507.81
2022-07-26T11:36:56.316Z,99503.34
2022-07-26T11:39:27.810Z,99509.78
2022-07-26T11:42:01.146Z,99504.28
2022-07-26T11:44:29.175Z,99502.38
2022-07-26T11:46:57.019Z,99499.44
2022-07-26T11:49:59.989Z,99502.91
2022-07-26T11:52:25.210Z,99493.31
2022-07-26T11:54:53.918Z,99501.16
2022-07-26T11:57:28.983Z,99503.84
2022-07-26T11:59:56.410Z,99506.44
2022-07-26T12:02:23.616Z,99501.16
2022-07-26T12:05:18.155Z,99490.28
2022-07-26T12:07:55.891Z,99486.47
2022-07-26T12:10:24.307Z,99490.06
2022-07-26T12:13:10.486Z,99486.13
2022-07-26T12:15:48.500Z,99484.41
2022-07-26T12:18:24.042Z,99476.59
2022-07-26T12:21:05.570Z,99478.56
2022-07-26T12:23:44.798Z,99473.69
2022-07-26T12:26:26.528Z,99477.72
2022-07-26T12:28:56.141Z,99475.09
2022-07-26T12:31:25.599Z,99476.56
2022-07-26T12:33:53.004Z,99472.84
2022-07-26T12:36:27.439Z,99473.09
2022-07-26T12:38:57.807Z,99478.41
2022-07-26T12:41:32.940Z,99482.25
2022-07-26T12:44:26.489Z,99479.69
2022-07-26T12:46:53.958Z,99478.56
2022-07-26T12:49:23.851Z,99480.22
2022-07-26T12:51:51.137Z,99473.56
2022-07-26T12:54:18.063Z,99478.34
2022-07-26T12:56:46.388Z,99468.84
2022-07-26T12:59:17.649Z,99465.78
2022-07-26T13:01:46.768Z,99461.31
2022-07-26T13:04:14.423Z,99465.44
2022-07-26T13:06:42.644Z,99466.00
2022-07-26T13:09:09.774Z,99464.06
2022-07-26T13:11:42.707Z,99466.66
2022-07-26T13:14:09.935Z,99462.31
2022-07-26T13:16:38.447Z,99459.19
2022-07-26T13:19:07.209Z,99445.66
2022-07-26T13:21:34.137Z,99452.28
2022-07-26T13:24:01.315Z,99455.06
2022-07-26T13:26:28.309Z,99455.03
2022-07-26T13:28:55.243Z,99456.22
2022-07-26T13:31:22.130Z,99462.75
2022-07-26T13:33:49.105Z,99445.94
2022-07-26T13:36:17.871Z,99453.50
2022-07-26T13:38:44.748Z,99452.34
2022-07-26T13:41:13.712Z,99436.22
2022-07-26T13:43:40.837Z,99435.16
2022-07-26T13:46:07.997Z,99439.22
2022-07-26T13:48:35.563Z,99440.88
2022-07-26T13:51:02.799Z,99440.47
2022-07-26T13:53:31.157Z,99433.56
2022-07-26T13:55:57.980Z,99432.97
2022-07-26T13:58:25.177Z,99435.06
2022-07-26T14:00:52.253Z,99429.22
2022-07-26T14:03:19.976Z,99419.06
2022-07-26T14:05:47.056Z,99426.88
2022-07-26T14:08:16.777Z,99425.47
2022-07-26T14:10:45.601Z,99436.34
2022-07-26T14:13:12.937Z,99429.69
2022-07-26T14:15:40.161Z,99435.88
2022-07-26T14:18:07.020Z,99432.13
2022-07-26T14:20:34.151Z,99421.50
2022-07-26T14:23:01.130Z,99432.94
2022-07-26T14:25:28.379Z,99433.53
2022-07-26T14:27:56.811Z,99435.50
2022-07-26T14:30:23.890Z,99437.13
2022-07-26T14:32:51.680Z,99432.25
2022-07-26T14:35:18.591Z,99430.13
2022-07-26T14:37:50.920Z,99439.13
2022-07-26T14:40:18.058Z,99431.56
2022-07-26T14:42:46.609Z,99433.53
2022-07-26T14:45:15.458Z,99430.03
2022-07-26T14:47:43.640Z,99437.16
2022-07-26T14:50:13.715Z,99430.25
2022-07-26T14:52:44.675Z,99435.38
2022-07-26T14:55:13.098Z,99439.81
2022-07-26T14:57:41.484Z,99431.06
2022-07-26T15:00:13.143Z,99426.66
2022-07-26T15:02:45.801Z,99431.19
2022-07-26T15:05:14.391Z,99439.13
2022-07-26T15:07:42.580Z,99434.44
2022-07-26T15:10:13.882Z,99439.34
2022-07-26T15:12:42.776Z,99423.97
2022-07-26T15:15:13.915Z,99426.53
2022-07-26T15:17:44.562Z,99421.63
2022-07-26T15:20:11.804Z,99427.69
2022-07-26T15:22:39.392Z,99419.50
2022-07-26T15:25:07.933Z,99425.25
2022-07-26T15:27:34.931Z,99423.50
2022-07-26T15:30:05.298Z,99418.84
2022-07-26T15:32:35.717Z,99426.41
2022-07-26T15:35:05.649Z,99420.81
2022-07-26T15:37:32.747Z,99420.34
2022-07-26T15:40:01.167Z,99415.91
2022-07-26T15:42:30.909Z,99428.16
2022-07-26T15:44:58.404Z,99412.72
2022-07-26T15:47:53.055Z,99415.16
2022-07-26T15:50:16.660Z,99410.50
2022-07-26T15:52:50.780Z,99403.66
2022-07-26T15:55:19.108Z,99408.47
2022-07-26T15:57:47.329Z,99407.84
2022-07-26T16:00:16.133Z,99402.38
2022-07-26T16:02:43.659Z,99404.50
2022-07-26T16:05:12.992Z,99402.22
2022-07-26T16:07:41.187Z,99404.56
2022-07-26T16:10:10.689Z,99397.56
2022-07-26T16:12:38.772Z,99394.09
2022-07-26T16:15:11.126Z,99393.66
2022-07-26T16:17:39.425Z,99399.72
2022-07-26T16:20:08.092Z,99396.63
2022-07-26T16:22:36.529Z,99397.81
2022-07-26T16:25:04.256Z,99387.41
2022-07-26T16:27:31.374Z,99391.50
2022-07-26T16:29:58.255Z,99380.63
2022-07-26T16:32:25.215Z,99384.47
2022-07-26T16:34:52.250Z,99379.31
2022-07-26T16:37:23.232Z,99381.69
2022-07-26T16:39:54.332Z,99376.91
2022-07-26T16:42:21.805Z,99377.75
2022-07-26T16:44:48.971Z,99387.78
2022-07-26T16:47:18.797Z,99379.00
2022-07-26T16:49:46.528Z,99380.63
2022-07-26T16:52:13.985Z,99378.47
2022-07-26T16:54:41.096Z,99375.22
2022-07-26T16:57:26.251Z,99376.50
2022-07-26T16:59:54.266Z,99376.63
2022-07-26T17:02:21.741Z,99382.31
2022-07-26T17:04:48.857Z,99355.78
2022-07-26T17:07:25.469Z,99382.81
2022-07-26T17:09:53.962Z,99377.47
2022-07-26T17:12:22.810Z,99377.81
2022-07-26T17:14:50.610Z,99385.63
2022-07-26T17:17:17.827Z,99378.03
2022-07-26T17:19:48.028Z,99376.84
2022-07-26T17:22:16.321Z,99374.47
2022-07-26T17:24:43.641Z,99367.22
2022-07-26T17:27:10.904Z,99366.25
2022-07-26T17:29:39.307Z,99364.41
2022-07-26T17:32:07.418Z,99371.38
2022-07-26T17:34:35.900Z,99371.38
2022-07-26T17:37:07.005Z,99366.25
2022-07-26T17:39:51.838Z,99349.97
2022-07-26T17:42:20.136Z,99367.06
2022-07-26T17:44:48.862Z,99361.94
2022-07-26T17:47:28.173Z,99363.78
2022-07-26T17:50:26.300Z,99369.09
2022-07-26T17:52:50.465Z,99365.44
2022-07-26T17:55:19.361Z,99365.31
2022-07-26T17:57:49.725Z,99377.00
2022-07-26T18:00:22.719Z,99372.94
2022-07-26T18:02:50.008Z,99381.84
2022-07-26T18:05:19.933Z,99374.28
2022-07-26T18:07:46.952Z,99370.88
2022-07-26T18:10:15.223Z,99379.69
2022-07-26T18:12:45.248Z,99363.47
2022-07-26T18:15:14.914Z,99362.34
2022-07-26T18:17:43.368Z,99352.16
2022-07-26T18:20:11.760Z,99363.22
2022-07-26T18:22:39.031Z,99364.03
2022-07-26T18:25:07.491Z,99354.88
2022-07-26T18:27:50.915Z,99356.38
2022-07-26T18:30:17.997Z,99356.63
2022-07-26T18:32:46.200Z,99366.72
2022-07-26T18:35:13.503Z,99366.19
2022-07-26T18:37:40.363Z,99368.25
2022-07-26T18:40:08.973Z,99368.53
2022-07-26T18:42:36.230Z,99370.59
2022-07-26T18:45:03.569Z,99364.44
2022-07-26T18:47:30.736Z,99374.06
2022-07-26T18:49:59.130Z,99366.13
2022-07-26T18:52:32.139Z,99369.47
2022-07-26T18:55:01.973Z,99376.25
2022-07-26T18:57:28.973Z,99372.38
2022-07-26T18:59:55.851Z,99372.19
2022-07-26T19:02:22.818Z,99379.06
2022-07-26T19:04:49.984Z,99376.84
2022-07-26T19:07:18.193Z,99380.75
2022-07-26T19:09:45.307Z,99380.13
2022-07-26T19:12:12.472Z,99375.81
2022-07-26T19:14:39.687Z,99377.72
2022-07-26T19:17:06.761Z,99381.22
2022-07-26T19:19:33.766Z,99384.31
2022-07-26T19:22:03.197Z,99389.47
2022-07-26T19:24:42.887Z,99404.66
2022-07-26T19:27:09.962Z,99406.72
2022-07-26T19:29:37.422Z,99405.94
2022-07-26T19:32:07.717Z,99409.22
2022-07-26T19:34:35.458Z,99419.09
2022-07-26T19:37:03.726Z,99412.75
2022-07-26T19:39:31.639Z,99416.47
2022-07-26T19:47:25.408Z,99427.97
2022-07-26T19:49:53.247Z,99422.63
2022-07-26T19:52:33.329Z,99423.66
2022-07-26T19:55:01.880Z,99416.47
2022-07-26T19:57:31.739Z,99408.81
2022-07-26T19:59:58.927Z,99416.75
2022-07-26T20:02:27.841Z,99424.47
2022-07-26T20:04:55.279Z,99424.41
2022-07-26T20:07:22.327Z,99428.41
2022-07-26T20:10:02.130Z,99407.88
2022-07-26T20:12:29.840Z,99428.84
2022-07-26T20:14:56.779Z,99433.53
2022-07-26T20:17:26.204Z,99429.69
2022-07-26T20:19:54.801Z,99420.63
2022-07-26T20:22:21.993Z,99429.31
2022-07-26T20:24:48.972Z,99427.75
2022-07-26T20:27:16.936Z,99423.59
2022-07-26T20:29:43.996Z,99412.84
2022-07-26T20:32:11.210Z,99435.22
2022-07-26T20:34:38.647Z,99430.78
2022-07-26T20:37:10.581Z,99423.59
2022-07-26T20:39:39.113Z,99427.69
2022-07-26T20:42:06.685Z,99426.47
2022-07-26T20:44:36.446Z,99430.91
2022-07-26T20:47:06.727Z,99423.97
2022-07-26T20:49:33.680Z,99430.00
2022-07-26T20:52:01.386Z,99433.34
2022-07-26T20:54:29.702Z,99428.78
2022-07-26T20:56:57.369Z,99431.19
2022-07-26T20:59:24.410Z,99433.22
2022-07-26T21:01:51.565Z,99427.41
2022-07-26T21:04:18.906Z,99420.97
2022-07-26T21:06:45.786Z,99422.22
2022-07-26T21:09:14.112Z,99427.38
2022-07-26T21:11:48.321Z,99428.97
2022-07-26T21:14:19.016Z,99431.78
2022-07-26T21:16:46.745Z,99432.34
2022-07-26T21:19:14.237Z,99430.44
2022-07-26T21:21:41.605Z,99428.78
2022-07-26T21:24:09.164Z,99424.94
2022-07-26T21:26:36.102Z,99434.53
2022-07-26T21:29:05.172Z,99436.22
2022-07-26T21:31:32.311Z,99431.97
2022-07-26T21:33:59.377Z,99435.81
2022-07-26T21:36:26.468Z,99433.88
2022-07-26T21:38:53.313Z,99430.59
2022-07-26T21:41:21.061Z,99439.28
2022-07-26T21:43:48.048Z,99442.72
2022-07-26T21:46:16.600Z,99445.00
2022-07-26T21:48:46.811Z,99442.91
2022-07-26T21:51:13.678Z,99436.72
2022-07-26T21:53:40.960Z,99439.69
2022-07-26T21:56:08.291Z,99440.25
2022-07-26T21:58:36.911Z,99429.56
2022-07-26T22:01:06.477Z,99427.75
2022-07-26T22:03:37.015Z,99438.53
2022-07-26T22:06:06.183Z,99437.00
2022-07-26T22:08:33.923Z,99440.09
2022-07-26T22:11:01.228Z,99435.91
2022-07-26T22:13:28.154Z,99436.09
2022-07-26T22:15:55.078Z,99439.34
2022-07-26T22:18:22.207Z,99438.22
2022-07-26T22:20:50.431Z,99437.84
2022-07-26T22:23:19.513Z,99435.69
2022-07-26T22:25:47.050Z,99438.47
2022-07-26T22:28:18.326Z,99440.50
2022-07-26T22:30:46.857Z,99442.78
2022-07-26T22:33:14.262Z,99437.78
2022-07-26T22:35:41.425Z,99446.22
2022-07-26T22:38:11.499Z,99452.06
2022-07-26T22:40:41.087Z,99445.13
2022-07-26T22:43:09.901Z,99449.88
2022-07-26T22:45:37.499Z,99446.22
2022-07-26T22:48:06.083Z,99442.66
2022-07-26T22:50:33.853Z,99450.59
2022-07-26T22:53:01.425Z,99450.16
2022-07-26T22:55:31.124Z,99439.81
2022-07-26T22:57:58.144Z,99445.44
2022-07-26T23:00:25.134Z,99444.97
2022-07-26T23:02:52.301Z,99451.72
2022-07-26T23:05:20.029Z,99443.66
2022-07-26T23:07:48.553Z,99450.72
2022-07-26T23:10:17.118Z,99447.25
2022-07-26T23:12:45.422Z,99445.31
2022-07-26T23:15:12.779Z,99440.19
2022-07-26T23:17:40.371Z,99444.03
2022-07-26T23:20:09.901Z,99451.59
2022-07-26T23:22:37.364Z,99451.59
2022-07-26T23:25:05.830Z,99458.38
2022-07-26T23:27:32.720Z,99459.56
2022-07-26T23:30:00.926Z,99455.72
2022-07-26T23:32:27.764Z,99451.91
2022-07-26T23:34:54.677Z,99456.84
2022-07-26T23:37:21.507Z,99453.81
2022-07-26T23:39:48.539Z,99457.75
2022-07-26T23:42:15.467Z,99455.53
2022-07-26T23:44:42.299Z,99460.84
2022-07-26T23:47:10.585Z,99452.44
2022-07-26T23:49:37.695Z,99458.75
2022-07-26T23:52:05.319Z,99460.13
2022-07-26T23:54:32.403Z,99457.56
2022-07-26T23:56:59.903Z,99458.38
2022-07-26T23:59:26.816Z,99457.31
